sensor_id;sensor_type;location;lat;lon;timestamp;temperature;humidity
50969;DHT22;36982;51.474;7.228;2023-06-10T00:00:16;20.20;99.90
50969;DHT22;36982;51.474;7.228;2023-06-10T00:02:42;20.10;99.90
50969;DHT22;36982;51.474;7.228;2023-06-10T00:05:09;20.10;99.90
50969;DHT22;36982;51.474;7.228;2023-06-10T00:07:35;20.20;99.90
50969;DHT22;36982;51.474;7.228;2023-06-10T00:10:07;20.00;99.90
50969;DHT22;36982;51.474;7.228;2023-06-10T00:12:33;20.00;99.90
50969;DHT22;36982;51.474;7.228;2023-06-10T00:15:03;20.00;99.90
50969;DHT22;36982;51.474;7.228;2023-06-10T00:17:30;19.90;99.90
50969;DHT22;36982;51.474;7.228;2023-06-10T00:19:56;19.80;99.90
50969;DHT22;36982;51.474;7.228;2023-06-10T00:22:22;19.80;99.90
50969;DHT22;36982;51.474;7.228;2023-06-10T00:24:47;19.80;99.90
50969;DHT22;36982;51.474;7.228;2023-06-10T00:27:13;19.80;99.90
50969;DHT22;36982;51.474;7.228;2023-06-10T00:29:39;19.70;99.90
50969;DHT22;36982;51.474;7.228;2023-06-10T00:32:05;19.70;1.00
50969;DHT22;36982;51.474;7.228;2023-06-10T00:34:30;19.60;1.00
50969;DHT22;36982;51.474;7.228;2023-06-10T00:36:57;19.50;41.30
50969;DHT22;36982;51.474;7.228;2023-06-10T00:39:23;19.50;99.90
50969;DHT22;36982;51.474;7.228;2023-06-10T00:41:48;19.50;99.90
50969;DHT22;36982;51.474;7.228;2023-06-10T00:44:15;19.60;99.90
50969;DHT22;36982;51.474;7.228;2023-06-10T00:46:40;19.50;99.90
50969;DHT22;36982;51.474;7.228;2023-06-10T00:49:06;19.50;99.90
50969;DHT22;36982;51.474;7.228;2023-06-10T00:51:32;19.40;99.90
50969;DHT22;36982;51.474;7.228;2023-06-10T00:53:57;19.50;99.90
50969;DHT22;36982;51.474;7.228;2023-06-10T00:56:23;19.40;99.90
50969;DHT22;36982;51.474;7.228;2023-06-10T00:58:49;19.40;99.90
50969;DHT22;36982;51.474;7.228;2023-06-10T01:01:15;19.40;99.90
50969;DHT22;36982;51.474;7.228;2023-06-10T01:03:41;19.30;99.90
50969;DHT22;36982;51.474;7.228;2023-06-10T01:12:21;19.30;99.90
50969;DHT22;36982;51.474;7.228;2023-06-10T01:14:50;19.20;1.00
50969;DHT22;36982;51.474;7.228;2023-06-10T01:17:17;19.30;1.00
50969;DHT22;36982;51.474;7.228;2023-06-10T01:19:43;19.20;90.60
50969;DHT22;36982;51.474;7.228;2023-06-10T01:22:09;19.20;99.90
50969;DHT22;36982;51.474;7.228;2023-06-10T01:24:36;19.20;99.90
50969;DHT22;36982;51.474;7.228;2023-06-10T01:27:07;19.10;99.90
50969;DHT22;36982;51.474;7.228;2023-06-10T01:29:46;19.10;99.90
50969;DHT22;36982;51.474;7.228;2023-06-10T01:32:48;19.00;32.20
50969;DHT22;36982;51.474;7.228;2023-06-10T01:35:15;19.00;99.90
50969;DHT22;36982;51.474;7.228;2023-06-10T01:37:44;19.00;99.90
50969;DHT22;36982;51.474;7.228;2023-06-10T01:40:11;18.90;99.90
50969;DHT22;36982;51.474;7.228;2023-06-10T01:42:37;18.90;99.90
50969;DHT22;36982;51.474;7.228;2023-06-10T01:45:03;18.80;1.00
50969;DHT22;36982;51.474;7.228;2023-06-10T01:47:29;18.80;99.90
50969;DHT22;36982;51.474;7.228;2023-06-10T01:49:55;18.80;99.90
50969;DHT22;36982;51.474;7.228;2023-06-10T01:52:20;18.60;99.90
50969;DHT22;36982;51.474;7.228;2023-06-10T01:54:46;18.60;99.90
50969;DHT22;36982;51.474;7.228;2023-06-10T01:57:12;18.70;99.90
50969;DHT22;36982;51.474;7.228;2023-06-10T01:59:37;18.60;1.00
50969;DHT22;36982;51.474;7.228;2023-06-10T02:02:04;18.70;1.00
50969;DHT22;36982;51.474;7.228;2023-06-10T02:04:30;18.60;1.00
50969;DHT22;36982;51.474;7.228;2023-06-10T02:06:56;18.60;10.80
50969;DHT22;36982;51.474;7.228;2023-06-10T02:09:22;18.60;99.90
50969;DHT22;36982;51.474;7.228;2023-06-10T02:11:48;18.50;1.00
50969;DHT22;36982;51.474;7.228;2023-06-10T02:14:14;18.40;1.00
50969;DHT22;36982;51.474;7.228;2023-06-10T02:16:40;18.60;99.90
50969;DHT22;36982;51.474;7.228;2023-06-10T02:19:06;18.40;99.90
50969;DHT22;36982;51.474;7.228;2023-06-10T02:21:32;18.40;1.00
50969;DHT22;36982;51.474;7.228;2023-06-10T02:23:59;18.30;99.90
50969;DHT22;36982;51.474;7.228;2023-06-10T02:26:25;18.30;99.90
50969;DHT22;36982;51.474;7.228;2023-06-10T02:28:51;18.40;1.00
50969;DHT22;36982;51.474;7.228;2023-06-10T02:31:17;18.30;59.20
50969;DHT22;36982;51.474;7.228;2023-06-10T02:33:43;18.30;99.90
50969;DHT22;36982;51.474;7.228;2023-06-10T02:36:10;18.30;99.90
50969;DHT22;36982;51.474;7.228;2023-06-10T02:38:39;18.20;1.00
50969;DHT22;36982;51.474;7.228;2023-06-10T02:41:06;18.20;42.90
50969;DHT22;36982;51.474;7.228;2023-06-10T02:43:31;18.20;99.90
50969;DHT22;36982;51.474;7.228;2023-06-10T02:45:57;18.10;99.90
50969;DHT22;36982;51.474;7.228;2023-06-10T02:48:24;18.10;99.90
50969;DHT22;36982;51.474;7.228;2023-06-10T02:50:49;18.00;99.90
50969;DHT22;36982;51.474;7.228;2023-06-10T02:53:15;18.00;99.90
50969;DHT22;36982;51.474;7.228;2023-06-10T02:55:41;18.00;1.00
50969;DHT22;36982;51.474;7.228;2023-06-10T02:58:06;17.90;1.00
50969;DHT22;36982;51.474;7.228;2023-06-10T03:00:32;17.90;1.00
50969;DHT22;36982;51.474;7.228;2023-06-10T03:02:58;17.80;13.70
50969;DHT22;36982;51.474;7.228;2023-06-10T03:05:28;17.90;8.90
50969;DHT22;36982;51.474;7.228;2023-06-10T03:07:53;17.90;14.90
50969;DHT22;36982;51.474;7.228;2023-06-10T03:10:19;17.90;45.50
50969;DHT22;36982;51.474;7.228;2023-06-10T03:12:45;17.80;71.50
50969;DHT22;36982;51.474;7.228;2023-06-10T03:15:11;17.80;99.90
50969;DHT22;36982;51.474;7.228;2023-06-10T03:17:36;17.70;99.90
50969;DHT22;36982;51.474;7.228;2023-06-10T03:20:02;17.80;99.90
50969;DHT22;36982;51.474;7.228;2023-06-10T03:22:31;17.60;99.90
50969;DHT22;36982;51.474;7.228;2023-06-10T03:24:56;17.60;99.90
50969;DHT22;36982;51.474;7.228;2023-06-10T03:27:22;17.60;99.90
50969;DHT22;36982;51.474;7.228;2023-06-10T03:29:48;17.60;99.90
50969;DHT22;36982;51.474;7.228;2023-06-10T03:32:13;17.60;99.90
50969;DHT22;36982;51.474;7.228;2023-06-10T03:34:40;17.60;99.90
50969;DHT22;36982;51.474;7.228;2023-06-10T03:37:06;17.80;99.90
50969;DHT22;36982;51.474;7.228;2023-06-10T03:39:32;17.70;99.90
50969;DHT22;36982;51.474;7.228;2023-06-10T03:41:57;17.70;99.90
50969;DHT22;36982;51.474;7.228;2023-06-10T03:44:24;17.60;99.90
50969;DHT22;36982;51.474;7.228;2023-06-10T03:46:51;17.60;99.90
50969;DHT22;36982;51.474;7.228;2023-06-10T03:49:17;17.60;99.90
50969;DHT22;36982;51.474;7.228;2023-06-10T03:51:43;17.60;99.90
50969;DHT22;36982;51.474;7.228;2023-06-10T03:54:08;17.60;99.90
50969;DHT22;36982;51.474;7.228;2023-06-10T03:56:35;17.60;99.90
50969;DHT22;36982;51.474;7.228;2023-06-10T03:59:00;17.50;99.90
50969;DHT22;36982;51.474;7.228;2023-06-10T04:01:26;17.40;99.90
50969;DHT22;36982;51.474;7.228;2023-06-10T04:03:52;17.70;99.90
50969;DHT22;36982;51.474;7.228;2023-06-10T04:06:19;17.40;99.90
50969;DHT22;36982;51.474;7.228;2023-06-10T04:08:45;17.50;99.90
50969;DHT22;36982;51.474;7.228;2023-06-10T04:11:10;17.50;99.90
50969;DHT22;36982;51.474;7.228;2023-06-10T04:13:36;17.50;99.90
50969;DHT22;36982;51.474;7.228;2023-06-10T04:16:02;17.50;99.90
50969;DHT22;36982;51.474;7.228;2023-06-10T04:18:28;17.60;99.90
50969;DHT22;36982;51.474;7.228;2023-06-10T04:20:54;17.60;99.90
50969;DHT22;36982;51.474;7.228;2023-06-10T04:23:20;17.70;99.90
50969;DHT22;36982;51.474;7.228;2023-06-10T04:25:46;17.60;99.90
50969;DHT22;36982;51.474;7.228;2023-06-10T04:28:12;17.70;65.70
50969;DHT22;36982;51.474;7.228;2023-06-10T04:30:37;17.80;5.70
50969;DHT22;36982;51.474;7.228;2023-06-10T04:33:03;17.80;2.60
50969;DHT22;36982;51.474;7.228;2023-06-10T04:35:32;17.80;1.00
50969;DHT22;36982;51.474;7.228;2023-06-10T04:37:57;17.80;28.40
50969;DHT22;36982;51.474;7.228;2023-06-10T04:40:23;17.90;1.00
50969;DHT22;36982;51.474;7.228;2023-06-10T04:42:48;17.90;99.90
50969;DHT22;36982;51.474;7.228;2023-06-10T04:45:14;18.00;99.90
50969;DHT22;36982;51.474;7.228;2023-06-10T04:47:40;18.00;99.90
50969;DHT22;36982;51.474;7.228;2023-06-10T04:50:06;18.00;99.90
50969;DHT22;36982;51.474;7.228;2023-06-10T04:52:32;18.10;99.90
50969;DHT22;36982;51.474;7.228;2023-06-10T04:54:59;18.20;99.90
50969;DHT22;36982;51.474;7.228;2023-06-10T04:57:24;18.10;99.90
50969;DHT22;36982;51.474;7.228;2023-06-10T04:59:52;18.20;1.00
50969;DHT22;36982;51.474;7.228;2023-06-10T05:02:17;18.20;99.90
50969;DHT22;36982;51.474;7.228;2023-06-10T05:04:43;18.30;99.90
50969;DHT22;36982;51.474;7.228;2023-06-10T05:07:08;18.90;17.80
50969;DHT22;36982;51.474;7.228;2023-06-10T05:09:34;19.40;1.00
50969;DHT22;36982;51.474;7.228;2023-06-10T05:12:00;20.10;59.70
50969;DHT22;36982;51.474;7.228;2023-06-10T05:14:25;20.60;99.90
50969;DHT22;36982;51.474;7.228;2023-06-10T05:16:51;21.00;99.90
50969;DHT22;36982;51.474;7.228;2023-06-10T05:19:16;21.60;61.20
50969;DHT22;36982;51.474;7.228;2023-06-10T05:21:43;22.00;1.00
50969;DHT22;36982;51.474;7.228;2023-06-10T05:24:09;22.20;1.00
50969;DHT22;36982;51.474;7.228;2023-06-10T05:26:35;22.40;99.90
50969;DHT22;36982;51.474;7.228;2023-06-10T05:29:04;22.70;99.90
50969;DHT22;36982;51.474;7.228;2023-06-10T05:31:29;23.10;99.90
50969;DHT22;36982;51.474;7.228;2023-06-10T05:33:55;23.40;99.90
50969;DHT22;36982;51.474;7.228;2023-06-10T05:36:20;23.70;11.90
50969;DHT22;36982;51.474;7.228;2023-06-10T05:38:46;23.60;1.00
50969;DHT22;36982;51.474;7.228;2023-06-10T05:41:12;23.40;1.00
50969;DHT22;36982;51.474;7.228;2023-06-10T05:43:37;23.70;1.00
50969;DHT22;36982;51.474;7.228;2023-06-10T05:46:03;24.30;1.00
50969;DHT22;36982;51.474;7.228;2023-06-10T05:48:29;24.40;99.90
50969;DHT22;36982;51.474;7.228;2023-06-10T05:50:54;24.30;99.90
50969;DHT22;36982;51.474;7.228;2023-06-10T05:53:20;24.10;99.90
50969;DHT22;36982;51.474;7.228;2023-06-10T05:55:46;23.80;99.90
50969;DHT22;36982;51.474;7.228;2023-06-10T05:58:13;23.90;99.90
50969;DHT22;36982;51.474;7.228;2023-06-10T06:00:39;24.50;99.90
50969;DHT22;36982;51.474;7.228;2023-06-10T06:03:09;25.20;99.90
50969;DHT22;36982;51.474;7.228;2023-06-10T06:05:35;25.50;99.90
50969;DHT22;36982;51.474;7.228;2023-06-10T06:08:05;25.70;99.90
50969;DHT22;36982;51.474;7.228;2023-06-10T06:10:33;26.00;99.90
50969;DHT22;36982;51.474;7.228;2023-06-10T06:12:59;26.40;99.90
50969;DHT22;36982;51.474;7.228;2023-06-10T06:15:25;26.50;99.90
50969;DHT22;36982;51.474;7.228;2023-06-10T06:17:51;26.30;99.90
50969;DHT22;36982;51.474;7.228;2023-06-10T06:20:19;26.30;99.90
50969;DHT22;36982;51.474;7.228;2023-06-10T06:22:45;26.20;99.90
50969;DHT22;36982;51.474;7.228;2023-06-10T06:25:11;26.10;99.90
50969;DHT22;36982;51.474;7.228;2023-06-10T06:27:36;25.50;99.90
50969;DHT22;36982;51.474;7.228;2023-06-10T06:30:06;25.90;99.90
50969;DHT22;36982;51.474;7.228;2023-06-10T06:32:31;25.90;99.90
50969;DHT22;36982;51.474;7.228;2023-06-10T06:34:57;25.70;99.90
50969;DHT22;36982;51.474;7.228;2023-06-10T06:37:24;25.70;99.90
50969;DHT22;36982;51.474;7.228;2023-06-10T06:39:54;25.50;99.90
50969;DHT22;36982;51.474;7.228;2023-06-10T06:42:20;25.70;99.90
50969;DHT22;36982;51.474;7.228;2023-06-10T06:44:46;26.00;99.90
50969;DHT22;36982;51.474;7.228;2023-06-10T06:47:12;26.20;94.90
50969;DHT22;36982;51.474;7.228;2023-06-10T06:49:38;25.90;82.40
50969;DHT22;36982;51.474;7.228;2023-06-10T06:52:04;25.20;77.40
50969;DHT22;36982;51.474;7.228;2023-06-10T06:54:30;25.20;92.20
50969;DHT22;36982;51.474;7.228;2023-06-10T06:56:55;25.50;93.20
50969;DHT22;36982;51.474;7.228;2023-06-10T06:59:21;25.70;80.00
50969;DHT22;36982;51.474;7.228;2023-06-10T07:01:47;25.80;60.00
50969;DHT22;36982;51.474;7.228;2023-06-10T07:04:14;25.10;57.20
50969;DHT22;36982;51.474;7.228;2023-06-10T07:06:40;24.30;63.60
50969;DHT22;36982;51.474;7.228;2023-06-10T07:09:07;23.90;73.70
50969;DHT22;36982;51.474;7.228;2023-06-10T07:11:34;23.70;78.60
50969;DHT22;36982;51.474;7.228;2023-06-10T07:14:00;23.50;88.00
50969;DHT22;36982;51.474;7.228;2023-06-10T07:16:25;23.40;91.80
50969;DHT22;36982;51.474;7.228;2023-06-10T07:18:52;23.10;99.90
50969;DHT22;36982;51.474;7.228;2023-06-10T07:21:18;22.90;99.90
50969;DHT22;36982;51.474;7.228;2023-06-10T07:23:44;22.70;99.90
50969;DHT22;36982;51.474;7.228;2023-06-10T07:26:10;22.70;99.90
50969;DHT22;36982;51.474;7.228;2023-06-10T07:28:40;22.80;99.90
50969;DHT22;36982;51.474;7.228;2023-06-10T07:31:07;22.80;99.90
50969;DHT22;36982;51.474;7.228;2023-06-10T07:33:33;22.90;99.90
50969;DHT22;36982;51.474;7.228;2023-06-10T07:35:59;22.80;99.90
50969;DHT22;36982;51.474;7.228;2023-06-10T07:38:25;22.70;99.90
50969;DHT22;36982;51.474;7.228;2023-06-10T07:40:51;22.60;99.90
50969;DHT22;36982;51.474;7.228;2023-06-10T07:43:17;22.80;99.90
50969;DHT22;36982;51.474;7.228;2023-06-10T07:45:43;22.80;99.90
50969;DHT22;36982;51.474;7.228;2023-06-10T07:48:09;22.80;99.90
50969;DHT22;36982;51.474;7.228;2023-06-10T07:50:34;22.80;99.90
50969;DHT22;36982;51.474;7.228;2023-06-10T07:53:00;22.90;99.90
50969;DHT22;36982;51.474;7.228;2023-06-10T07:55:26;23.00;99.90
50969;DHT22;36982;51.474;7.228;2023-06-10T07:57:52;23.00;99.90
50969;DHT22;36982;51.474;7.228;2023-06-10T08:00:19;23.00;99.90
50969;DHT22;36982;51.474;7.228;2023-06-10T08:02:45;23.10;99.90
50969;DHT22;36982;51.474;7.228;2023-06-10T08:05:10;23.10;99.90
50969;DHT22;36982;51.474;7.228;2023-06-10T08:07:36;23.20;99.90
50969;DHT22;36982;51.474;7.228;2023-06-10T08:10:02;23.20;99.90
50969;DHT22;36982;51.474;7.228;2023-06-10T08:12:29;23.10;99.90
50969;DHT22;36982;51.474;7.228;2023-06-10T08:14:55;23.20;99.90
50969;DHT22;36982;51.474;7.228;2023-06-10T08:17:21;23.10;99.90
50969;DHT22;36982;51.474;7.228;2023-06-10T08:19:46;23.20;99.90
50969;DHT22;36982;51.474;7.228;2023-06-10T08:22:12;23.20;99.90
50969;DHT22;36982;51.474;7.228;2023-06-10T08:24:37;23.30;99.90
50969;DHT22;36982;51.474;7.228;2023-06-10T08:27:03;23.40;99.90
50969;DHT22;36982;51.474;7.228;2023-06-10T08:29:29;23.50;99.90
50969;DHT22;36982;51.474;7.228;2023-06-10T08:31:56;23.80;99.90
50969;DHT22;36982;51.474;7.228;2023-06-10T08:34:22;23.90;99.90
50969;DHT22;36982;51.474;7.228;2023-06-10T08:36:48;23.90;99.90
50969;DHT22;36982;51.474;7.228;2023-06-10T08:39:18;23.90;99.90
50969;DHT22;36982;51.474;7.228;2023-06-10T08:41:51;23.90;99.90
50969;DHT22;36982;51.474;7.228;2023-06-10T08:44:28;23.80;99.90
50969;DHT22;36982;51.474;7.228;2023-06-10T08:46:56;23.90;99.90
50969;DHT22;36982;51.474;7.228;2023-06-10T08:49:25;23.90;99.90
50969;DHT22;36982;51.474;7.228;2023-06-10T08:51:55;23.90;99.90
50969;DHT22;36982;51.474;7.228;2023-06-10T08:54:25;24.00;99.90
50969;DHT22;36982;51.474;7.228;2023-06-10T08:56:54;24.20;99.90
50969;DHT22;36982;51.474;7.228;2023-06-10T08:59:21;24.30;99.90
50969;DHT22;36982;51.474;7.228;2023-06-10T09:01:47;24.30;99.90
50969;DHT22;36982;51.474;7.228;2023-06-10T09:04:13;24.40;99.90
50969;DHT22;36982;51.474;7.228;2023-06-10T09:06:40;24.50;99.90
50969;DHT22;36982;51.474;7.228;2023-06-10T09:09:07;24.50;99.90
50969;DHT22;36982;51.474;7.228;2023-06-10T09:11:32;24.50;99.90
50969;DHT22;36982;51.474;7.228;2023-06-10T09:13:58;24.60;99.90
50969;DHT22;36982;51.474;7.228;2023-06-10T09:16:27;24.60;99.90
50969;DHT22;36982;51.474;7.228;2023-06-10T09:18:53;24.70;99.90
50969;DHT22;36982;51.474;7.228;2023-06-10T09:21:24;24.70;99.90
50969;DHT22;36982;51.474;7.228;2023-06-10T09:23:50;24.70;99.90
50969;DHT22;36982;51.474;7.228;2023-06-10T09:26:16;24.70;99.90
50969;DHT22;36982;51.474;7.228;2023-06-10T09:28:48;24.80;99.90
50969;DHT22;36982;51.474;7.228;2023-06-10T09:31:14;24.80;99.90
50969;DHT22;36982;51.474;7.228;2023-06-10T09:33:44;24.80;99.90
50969;DHT22;36982;51.474;7.228;2023-06-10T09:36:10;24.90;99.90
50969;DHT22;36982;51.474;7.228;2023-06-10T09:38:36;24.90;99.90
50969;DHT22;36982;51.474;7.228;2023-06-10T09:41:03;25.00;99.90
50969;DHT22;36982;51.474;7.228;2023-06-10T09:43:40;25.10;99.90
50969;DHT22;36982;51.474;7.228;2023-06-10T09:46:05;25.20;99.90
50969;DHT22;36982;51.474;7.228;2023-06-10T09:48:35;25.20;99.90
50969;DHT22;36982;51.474;7.228;2023-06-10T09:51:01;25.20;99.90
50969;DHT22;36982;51.474;7.228;2023-06-10T09:53:27;25.20;99.90
50969;DHT22;36982;51.474;7.228;2023-06-10T09:55:52;25.20;99.90
50969;DHT22;36982;51.474;7.228;2023-06-10T09:58:36;25.20;99.90
50969;DHT22;36982;51.474;7.228;2023-06-10T10:01:10;25.20;99.90
50969;DHT22;36982;51.474;7.228;2023-06-10T10:03:49;25.30;99.90
50969;DHT22;36982;51.474;7.228;2023-06-10T10:06:17;25.30;99.90
50969;DHT22;36982;51.474;7.228;2023-06-10T10:08:44;25.50;99.90
50969;DHT22;36982;51.474;7.228;2023-06-10T10:11:10;25.50;99.90
50969;DHT22;36982;51.474;7.228;2023-06-10T10:13:38;25.60;99.90
50969;DHT22;36982;51.474;7.228;2023-06-10T10:16:11;25.70;97.30
50969;DHT22;36982;51.474;7.228;2023-06-10T10:18:39;25.70;98.50
50969;DHT22;36982;51.474;7.228;2023-06-10T10:21:15;25.80;95.20
50969;DHT22;36982;51.474;7.228;2023-06-10T10:26:21;25.80;90.10
50969;DHT22;36982;51.474;7.228;2023-06-10T10:31:35;25.90;93.20
50969;DHT22;36982;51.474;7.228;2023-06-10T10:34:05;26.00;93.20
50969;DHT22;36982;51.474;7.228;2023-06-10T10:36:32;26.10;86.40
50969;DHT22;36982;51.474;7.228;2023-06-10T10:38:58;26.10;68.50
50969;DHT22;36982;51.474;7.228;2023-06-10T10:41:27;26.20;75.90
50969;DHT22;36982;51.474;7.228;2023-06-10T10:43:53;26.30;54.80
50969;DHT22;36982;51.474;7.228;2023-06-10T10:46:19;26.20;34.70
50969;DHT22;36982;51.474;7.228;2023-06-10T10:49:20;26.20;34.20
50969;DHT22;36982;51.474;7.228;2023-06-10T10:52:01;26.20;29.30
50969;DHT22;36982;51.474;7.228;2023-06-10T10:54:31;26.20;28.60
50969;DHT22;36982;51.474;7.228;2023-06-10T10:57:28;26.30;29.00
50969;DHT22;36982;51.474;7.228;2023-06-10T10:59:58;26.40;29.00
50969;DHT22;36982;51.474;7.228;2023-06-10T11:02:45;26.50;26.70
50969;DHT22;36982;51.474;7.228;2023-06-10T11:05:14;26.50;23.90
50969;DHT22;36982;51.474;7.228;2023-06-10T11:07:40;26.50;23.90
50969;DHT22;36982;51.474;7.228;2023-06-10T11:10:11;26.70;17.70
50969;DHT22;36982;51.474;7.228;2023-06-10T11:15:29;26.50;10.80
50969;DHT22;36982;51.474;7.228;2023-06-10T11:21:07;26.60;8.20
50969;DHT22;36982;51.474;7.228;2023-06-10T11:23:33;26.70;1.00
50969;DHT22;36982;51.474;7.228;2023-06-10T11:28:40;26.80;1.00
50969;DHT22;36982;51.474;7.228;2023-06-10T11:31:07;26.80;1.00
50969;DHT22;36982;51.474;7.228;2023-06-10T11:33:32;26.80;1.00
50969;DHT22;36982;51.474;7.228;2023-06-10T11:35:58;26.80;1.00
50969;DHT22;36982;51.474;7.228;2023-06-10T11:38:25;26.90;1.00
50969;DHT22;36982;51.474;7.228;2023-06-10T11:40:51;26.90;1.00
50969;DHT22;36982;51.474;7.228;2023-06-10T11:43:18;26.90;1.00
50969;DHT22;36982;51.474;7.228;2023-06-10T11:45:44;27.00;1.00
50969;DHT22;36982;51.474;7.228;2023-06-10T11:48:10;27.00;1.00
50969;DHT22;36982;51.474;7.228;2023-06-10T11:51:11;27.10;1.00
50969;DHT22;36982;51.474;7.228;2023-06-10T11:53:37;27.00;1.00
50969;DHT22;36982;51.474;7.228;2023-06-10T11:56:03;27.10;1.00
50969;DHT22;36982;51.474;7.228;2023-06-10T11:58:28;27.30;1.00
50969;DHT22;36982;51.474;7.228;2023-06-10T12:00:55;27.40;1.00
50969;DHT22;36982;51.474;7.228;2023-06-10T12:03:26;27.40;1.00
50969;DHT22;36982;51.474;7.228;2023-06-10T12:06:00;27.50;1.00
50969;DHT22;36982;51.474;7.228;2023-06-10T12:08:26;27.50;1.00
50969;DHT22;36982;51.474;7.228;2023-06-10T12:10:53;27.50;1.00
50969;DHT22;36982;51.474;7.228;2023-06-10T12:13:18;27.50;1.00
50969;DHT22;36982;51.474;7.228;2023-06-10T12:15:44;27.50;1.00
50969;DHT22;36982;51.474;7.228;2023-06-10T12:18:23;27.50;1.00
50969;DHT22;36982;51.474;7.228;2023-06-10T12:20:50;27.60;1.00
50969;DHT22;36982;51.474;7.228;2023-06-10T12:23:18;27.60;1.00
50969;DHT22;36982;51.474;7.228;2023-06-10T12:25:51;27.70;1.00
50969;DHT22;36982;51.474;7.228;2023-06-10T12:28:24;27.70;1.00
50969;DHT22;36982;51.474;7.228;2023-06-10T12:30:50;27.80;1.00
50969;DHT22;36982;51.474;7.228;2023-06-10T12:33:20;27.80;1.00
50969;DHT22;36982;51.474;7.228;2023-06-10T12:35:50;27.90;1.00
50969;DHT22;36982;51.474;7.228;2023-06-10T12:38:26;28.00;1.00
50969;DHT22;36982;51.474;7.228;2023-06-10T12:41:02;27.90;1.00
50969;DHT22;36982;51.474;7.228;2023-06-10T12:43:31;27.90;1.00
50969;DHT22;36982;51.474;7.228;2023-06-10T12:46:08;27.80;1.00
50969;DHT22;36982;51.474;7.228;2023-06-10T12:48:34;27.90;1.00
50969;DHT22;36982;51.474;7.228;2023-06-10T12:51:00;28.00;1.00
50969;DHT22;36982;51.474;7.228;2023-06-10T12:53:26;28.00;1.00
50969;DHT22;36982;51.474;7.228;2023-06-10T12:55:53;28.10;1.00
50969;DHT22;36982;51.474;7.228;2023-06-10T12:58:22;28.00;99.90
50969;DHT22;36982;51.474;7.228;2023-06-10T13:00:48;28.10;99.90
50969;DHT22;36982;51.474;7.228;2023-06-10T13:03:14;28.10;99.90
50969;DHT22;36982;51.474;7.228;2023-06-10T13:05:40;28.10;99.90
50969;DHT22;36982;51.474;7.228;2023-06-10T13:08:07;28.20;99.90
50969;DHT22;36982;51.474;7.228;2023-06-10T13:10:33;28.10;99.90
50969;DHT22;36982;51.474;7.228;2023-06-10T13:13:05;28.20;99.90
50969;DHT22;36982;51.474;7.228;2023-06-10T13:15:33;28.20;99.90
50969;DHT22;36982;51.474;7.228;2023-06-10T13:18:02;28.20;99.90
50969;DHT22;36982;51.474;7.228;2023-06-10T13:20:29;28.20;99.90
50969;DHT22;36982;51.474;7.228;2023-06-10T13:22:55;28.20;99.90
50969;DHT22;36982;51.474;7.228;2023-06-10T13:25:20;28.10;99.90
50969;DHT22;36982;51.474;7.228;2023-06-10T13:27:46;28.30;99.90
50969;DHT22;36982;51.474;7.228;2023-06-10T13:30:12;28.30;99.90
50969;DHT22;36982;51.474;7.228;2023-06-10T13:32:37;28.40;99.90
50969;DHT22;36982;51.474;7.228;2023-06-10T13:35:04;28.40;99.90
50969;DHT22;36982;51.474;7.228;2023-06-10T13:37:29;28.30;99.90
50969;DHT22;36982;51.474;7.228;2023-06-10T13:39:55;28.40;99.90
50969;DHT22;36982;51.474;7.228;2023-06-10T13:42:21;28.50;99.90
50969;DHT22;36982;51.474;7.228;2023-06-10T13:44:47;28.60;99.90
50969;DHT22;36982;51.474;7.228;2023-06-10T13:47:14;28.50;99.90
50969;DHT22;36982;51.474;7.228;2023-06-10T13:49:39;28.50;99.90
50969;DHT22;36982;51.474;7.228;2023-06-10T13:52:06;28.50;99.90
50969;DHT22;36982;51.474;7.228;2023-06-10T13:54:32;28.60;99.90
50969;DHT22;36982;51.474;7.228;2023-06-10T13:56:57;28.60;99.90
50969;DHT22;36982;51.474;7.228;2023-06-10T13:59:23;28.70;99.90
50969;DHT22;36982;51.474;7.228;2023-06-10T14:01:49;28.70;99.90
50969;DHT22;36982;51.474;7.228;2023-06-10T14:04:14;28.60;99.90
50969;DHT22;36982;51.474;7.228;2023-06-10T14:06:40;28.60;99.90
50969;DHT22;36982;51.474;7.228;2023-06-10T14:09:05;28.60;99.90
50969;DHT22;36982;51.474;7.228;2023-06-10T14:11:31;28.70;99.90
50969;DHT22;36982;51.474;7.228;2023-06-10T14:13:57;28.80;99.90
50969;DHT22;36982;51.474;7.228;2023-06-10T14:16:27;28.80;99.90
50969;DHT22;36982;51.474;7.228;2023-06-10T14:18:53;28.60;99.90
50969;DHT22;36982;51.474;7.228;2023-06-10T14:21:19;28.50;99.90
50969;DHT22;36982;51.474;7.228;2023-06-10T14:23:45;28.50;99.90
50969;DHT22;36982;51.474;7.228;2023-06-10T14:26:11;28.50;99.90
50969;DHT22;36982;51.474;7.228;2023-06-10T14:28:37;28.50;99.90
50969;DHT22;36982;51.474;7.228;2023-06-10T14:31:03;28.40;99.90
50969;DHT22;36982;51.474;7.228;2023-06-10T14:33:28;28.50;99.90
50969;DHT22;36982;51.474;7.228;2023-06-10T14:35:56;28.60;99.90
50969;DHT22;36982;51.474;7.228;2023-06-10T14:38:22;28.70;99.90
50969;DHT22;36982;51.474;7.228;2023-06-10T14:40:47;28.70;99.90
50969;DHT22;36982;51.474;7.228;2023-06-10T14:43:13;28.70;99.90
50969;DHT22;36982;51.474;7.228;2023-06-10T14:45:39;28.60;99.90
50969;DHT22;36982;51.474;7.228;2023-06-10T14:48:06;28.70;99.90
50969;DHT22;36982;51.474;7.228;2023-06-10T14:50:32;28.60;99.90
50969;DHT22;36982;51.474;7.228;2023-06-10T14:52:58;28.60;99.90
50969;DHT22;36982;51.474;7.228;2023-06-10T14:55:24;28.60;99.90
50969;DHT22;36982;51.474;7.228;2023-06-10T14:57:49;28.60;99.90
50969;DHT22;36982;51.474;7.228;2023-06-10T15:00:15;28.70;99.90
50969;DHT22;36982;51.474;7.228;2023-06-10T15:02:45;28.70;99.90
50969;DHT22;36982;51.474;7.228;2023-06-10T15:05:13;28.80;99.90
50969;DHT22;36982;51.474;7.228;2023-06-10T15:07:40;28.80;99.90
50969;DHT22;36982;51.474;7.228;2023-06-10T15:10:06;28.90;99.90
50969;DHT22;36982;51.474;7.228;2023-06-10T15:12:32;28.90;99.90
50969;DHT22;36982;51.474;7.228;2023-06-10T15:14:57;28.80;99.90
50969;DHT22;36982;51.474;7.228;2023-06-10T15:17:23;28.80;99.90
50969;DHT22;36982;51.474;7.228;2023-06-10T15:19:48;28.80;99.90
50969;DHT22;36982;51.474;7.228;2023-06-10T15:22:14;28.70;99.90
50969;DHT22;36982;51.474;7.228;2023-06-10T15:24:40;28.70;99.90
50969;DHT22;36982;51.474;7.228;2023-06-10T15:27:05;28.70;99.90
50969;DHT22;36982;51.474;7.228;2023-06-10T15:29:32;28.60;99.90
50969;DHT22;36982;51.474;7.228;2023-06-10T15:31:57;28.50;99.90
50969;DHT22;36982;51.474;7.228;2023-06-10T15:34:23;28.50;99.90
50969;DHT22;36982;51.474;7.228;2023-06-10T15:36:49;28.50;99.90
50969;DHT22;36982;51.474;7.228;2023-06-10T15:39:14;28.50;99.90
50969;DHT22;36982;51.474;7.228;2023-06-10T15:41:40;28.50;99.90
50969;DHT22;36982;51.474;7.228;2023-06-10T15:44:06;28.50;99.90
50969;DHT22;36982;51.474;7.228;2023-06-10T15:46:32;28.50;99.90
50969;DHT22;36982;51.474;7.228;2023-06-10T15:49:00;28.50;99.90
50969;DHT22;36982;51.474;7.228;2023-06-10T15:51:25;28.60;99.90